Time;durP1;ratioP1;P1;durP2;ratioP2;P2;SDS_P1;SDS_P2;PMS_P1;PMS_P2;Temp;Humidity;BMP_temperature;BMP_pressure;BME280_temperature;BME280_humidity;BME280_pressure;Samples;Min_cycle;Max_cycle;Signal;HPM_P1;HPM_P2
2021/09/23 00:00:23;;;;;;;12.05;6.68;;;;;;;;;;4975848;28;20289;-57
2021/09/23 00:05:21;;;;;;;12.38;7.38;;;;;;;;;;4975953;28;20091;-56
2021/09/23 00:07:47;;;;;;;12.02;6.75;;;;;;;;;;4975691;28;20015;-56
2021/09/23 00:10:17;;;;;;;11.38;7.38;;;;;;;;;;4974568;28;20102;-57
2021/09/23 00:12:43;;;;;;;10.70;6.85;;;;;;;;;;4975719;28;20417;-59
2021/09/23 00:15:15;;;;;;;13.40;8.10;;;;;;;;;;4975720;28;20030;-59
2021/09/23 00:17:47;;;;;;;11.88;8.35;;;;;;;;;;4970187;28;20086;-58
2021/09/23 00:20:13;;;;;;;12.83;7.97;;;;;;;;;;4982479;28;20113;-59
2021/09/23 00:22:38;;;;;;;11.07;8.00;;;;;;;;;;4994868;28;20049;-58
2021/09/23 00:25:03;;;;;;;10.33;7.40;;;;;;;;;;4995408;28;20481;-59
2021/09/23 00:27:29;;;;;;;9.48;7.15;;;;;;;;;;4976382;28;20777;-59
2021/09/23 00:29:54;;;;;;;12.60;7.33;;;;;;;;;;4975364;28;20031;-57
2021/09/23 00:32:19;;;;;;;10.43;7.00;;;;;;;;;;4975544;28;20018;-60
2021/09/23 00:34:47;;;;;;;13.53;7.43;;;;;;;;;;4974042;28;20269;-57
2021/09/23 00:37:22;;;;;;;13.07;7.13;;;;;;;;;;4974136;28;20266;-59
2021/09/23 00:39:47;;;;;;;10.15;7.18;;;;;;;;;;4975109;28;20027;-58
2021/09/23 00:42:12;;;;;;;11.97;7.67;;;;;;;;;;4981744;28;20033;-58
2021/09/23 00:44:55;;;;;;;9.60;6.97;;;;;;;;;;4992997;28;20343;-59
2021/09/23 00:47:21;;;;;;;11.50;6.82;;;;;;;;;;4994500;28;20532;-58
2021/09/23 00:49:46;;;;;;;9.98;6.70;;;;;;;;;;4993075;28;20030;-56
2021/09/23 00:52:14;;;;;;;9.50;7.33;;;;;;;;;;4985763;28;20023;-58
2021/09/23 00:54:39;;;;;;;9.32;6.88;;;;;;;;;;4975435;28;20826;-57
2021/09/23 00:57:05;;;;;;;9.18;6.03;;;;;;;;;;4994189;28;20027;-57
2021/09/23 00:59:30;;;;;;;10.00;6.50;;;;;;;;;;4994103;28;20026;-59
2021/09/23 01:01:55;;;;;;;9.13;6.72;;;;;;;;;;4991999;28;20317;-59
2021/09/23 01:04:23;;;;;;;10.17;6.33;;;;;;;;;;4993855;28;20493;-59
2021/09/23 01:06:52;;;;;;;8.80;6.57;;;;;;;;;;4985141;28;20262;-58
2021/09/23 01:09:20;;;;;;;8.32;6.10;;;;;;;;;;4973275;28;20132;-59
2021/09/23 01:11:48;;;;;;;11.65;6.90;;;;;;;;;;4974594;28;20046;-59
2021/09/23 01:14:13;;;;;;;10.27;7.18;;;;;;;;;;4972700;28;20755;-59
2021/09/23 01:16:45;;;;;;;12.30;7.53;;;;;;;;;;4985141;28;20109;-58
2021/09/23 01:19:11;;;;;;;9.07;6.95;;;;;;;;;;4984817;28;20030;-59
2021/09/23 01:21:36;;;;;;;12.80;7.28;;;;;;;;;;4971917;28;20035;-58
2021/09/23 01:24:01;;;;;;;11.15;7.35;;;;;;;;;;4973307;28;20058;-54
2021/09/23 01:26:30;;;;;;;11.60;7.40;;;;;;;;;;4973299;28;20011;-59
2021/09/23 01:28:56;;;;;;;14.38;7.47;;;;;;;;;;4972263;28;20061;-59
2021/09/23 01:31:21;;;;;;;11.23;8.05;;;;;;;;;;4971838;28;20019;-59
2021/09/23 01:33:46;;;;;;;11.77;7.50;;;;;;;;;;4971822;28;20023;-59
2021/09/23 01:36:20;;;;;;;11.33;7.33;;;;;;;;;;4961299;28;20536;-59
2021/09/23 01:38:58;;;;;;;9.38;7.20;;;;;;;;;;4991848;28;20277;-56
2021/09/23 01:41:26;;;;;;;9.93;6.90;;;;;;;;;;4960457;28;20105;-57
2021/09/23 01:43:51;;;;;;;11.55;7.28;;;;;;;;;;4973317;28;20410;-55
2021/09/23 01:46:24;;;;;;;11.07;7.07;;;;;;;;;;4971381;28;20054;-58
2021/09/23 01:48:49;;;;;;;9.65;6.80;;;;;;;;;;4968695;28;20298;-58
2021/09/23 01:51:14;;;;;;;12.63;7.20;;;;;;;;;;4992645;28;20061;-57
2021/09/23 01:53:39;;;;;;;10.97;7.10;;;;;;;;;;4992403;28;20300;-58
2021/09/23 01:56:05;;;;;;;10.73;7.05;;;;;;;;;;4992004;28;20272;-58
2021/09/23 01:58:30;;;;;;;10.38;6.70;;;;;;;;;;4991222;28;20030;-57
2021/09/23 02:00:59;;;;;;;9.98;7.15;;;;;;;;;;4992632;28;20033;-60
2021/09/23 02:03:24;;;;;;;9.20;6.53;;;;;;;;;;4992420;28;20034;-55
2021/09/23 02:05:49;;;;;;;12.23;6.65;;;;;;;;;;4991849;28;20026;-59
2021/09/23 02:08:15;;;;;;;9.20;6.20;;;;;;;;;;4990907;28;20026;-57
2021/09/23 02:10:46;;;;;;;12.73;6.80;;;;;;;;;;4992281;28;20084;-58
2021/09/23 02:13:11;;;;;;;9.45;6.43;;;;;;;;;;4990763;28;20033;-57
2021/09/23 02:15:36;;;;;;;9.63;6.63;;;;;;;;;;4984252;28;20019;-56
2021/09/23 02:18:02;;;;;;;11.50;6.73;;;;;;;;;;4972919;28;20270;-58
2021/09/23 02:20:27;;;;;;;9.00;6.00;;;;;;;;;;4972779;28;20278;-58
2021/09/23 02:22:52;;;;;;;13.35;7.53;;;;;;;;;;4972593;28;20026;-59
2021/09/23 02:25:21;;;;;;;9.98;6.70;;;;;;;;;;4970998;28;20023;-56
2021/09/23 02:27:46;;;;;;;9.50;6.35;;;;;;;;;;4972758;28;20087;-58
2021/09/23 02:30:20;;;;;;;12.10;7.68;;;;;;;;;;4972524;28;20028;-57
2021/09/23 02:32:46;;;;;;;10.43;7.45;;;;;;;;;;4972597;28;20023;-59
2021/09/23 02:35:21;;;;;;;10.57;7.38;;;;;;;;;;4972098;28;20131;-56
2021/09/23 02:37:47;;;;;;;11.75;7.28;;;;;;;;;;4971327;28;20023;-58
2021/09/23 02:40:12;;;;;;;12.27;8.45;;;;;;;;;;4972503;28;20030;-54
2021/09/23 02:42:38;;;;;;;14.50;8.70;;;;;;;;;;4972396;28;20035;-59
2021/09/23 02:45:04;;;;;;;17.58;8.25;;;;;;;;;;4970876;28;20035;-59
2021/09/23 02:47:29;;;;;;;13.55;8.10;;;;;;;;;;4971343;28;20394;-54
2021/09/23 02:49:54;;;;;;;13.60;8.40;;;;;;;;;;4967308;28;20023;-56
2021/09/23 02:52:20;;;;;;;12.45;8.15;;;;;;;;;;4965288;28;20065;-55
2021/09/23 02:54:45;;;;;;;13.23;9.13;;;;;;;;;;4972033;28;20027;-55
2021/09/23 02:57:11;;;;;;;11.80;7.93;;;;;;;;;;4972336;28;20084;-59
2021/09/23 02:59:37;;;;;;;11.48;7.75;;;;;;;;;;4972226;28;20105;-56
2021/09/23 03:02:02;;;;;;;14.95;9.60;;;;;;;;;;4972323;28;20059;-57
2021/09/23 03:04:28;;;;;;;13.80;8.50;;;;;;;;;;4977207;28;20481;-57
2021/09/23 03:06:59;;;;;;;14.90;8.27;;;;;;;;;;4990625;28;20239;-59
2021/09/23 03:09:24;;;;;;;12.18;8.25;;;;;;;;;;4991786;28;20065;-58
2021/09/23 03:11:52;;;;;;;10.48;7.82;;;;;;;;;;4991698;28;20481;-58
2021/09/23 03:14:17;;;;;;;12.63;8.43;;;;;;;;;;4991302;28;20731;-58
2021/09/23 03:16:49;;;;;;;12.17;7.97;;;;;;;;;;4979452;28;20027;-56
2021/09/23 03:19:14;;;;;;;13.45;8.85;;;;;;;;;;4970913;28;20328;-58
2021/09/23 03:21:39;;;;;;;13.73;8.85;;;;;;;;;;4972169;28;20022;-58
2021/09/23 03:24:09;;;;;;;13.10;8.18;;;;;;;;;;4971848;28;20023;-60
2021/09/23 03:26:35;;;;;;;14.45;8.07;;;;;;;;;;4974278;28;20524;-60
2021/09/23 03:29:00;;;;;;;12.05;7.63;;;;;;;;;;4975612;28;20027;-58
2021/09/23 03:31:29;;;;;;;12.27;8.30;;;;;;;;;;4975672;28;20470;-58
2021/09/23 03:33:54;;;;;;;16.50;9.23;;;;;;;;;;4975169;28;20388;-57
2021/09/23 03:36:19;;;;;;;15.63;8.25;;;;;;;;;;4975311;28;20097;-57
2021/09/23 03:38:47;;;;;;;10.67;7.63;;;;;;;;;;4975305;28;20390;-58
2021/09/23 03:41:12;;;;;;;10.68;7.03;;;;;;;;;;4962481;28;20255;-56
2021/09/23 03:43:40;;;;;;;12.65;8.32;;;;;;;;;;4994636;28;20026;-57
2021/09/23 03:46:08;;;;;;;15.00;7.88;;;;;;;;;;4994088;28;20042;-56
2021/09/23 03:48:33;;;;;;;11.25;7.65;;;;;;;;;;4993367;28;20040;-57
2021/09/23 03:50:59;;;;;;;10.00;7.03;;;;;;;;;;4993328;28;20033;-58
2021/09/23 03:53:27;;;;;;;11.40;7.85;;;;;;;;;;4994664;28;20112;-60
2021/09/23 03:55:58;;;;;;;12.45;7.30;;;;;;;;;;4994013;28;20022;-59
2021/09/23 03:58:23;;;;;;;12.75;7.78;;;;;;;;;;4993368;28;20053;-59
2021/09/23 04:00:48;;;;;;;11.07;7.57;;;;;;;;;;4994383;28;20473;-58
2021/09/23 04:03:14;;;;;;;12.02;8.15;;;;;;;;;;4993051;28;20796;-59
2021/09/23 04:05:45;;;;;;;11.63;7.23;;;;;;;;;;4993910;28;20031;-56
2021/09/23 04:08:19;;;;;;;15.02;8.25;;;;;;;;;;4993002;28;20264;-57
2021/09/23 04:10:45;;;;;;;11.73;8.00;;;;;;;;;;4992989;28;20970;-57
2021/09/23 04:13:10;;;;;;;13.77;8.25;;;;;;;;;;4992972;28;20058;-57
2021/09/23 04:15:35;;;;;;;11.75;7.68;;;;;;;;;;4990550;28;20045;-56
2021/09/23 04:18:07;;;;;;;10.73;7.43;;;;;;;;;;4973509;28;20027;-56
2021/09/23 04:20:32;;;;;;;11.05;7.60;;;;;;;;;;4974411;28;20277;-57
2021/09/23 04:22:57;;;;;;;11.88;7.93;;;;;;;;;;4974516;28;20031;-58
2021/09/23 04:25:22;;;;;;;11.35;7.22;;;;;;;;;;4974206;28;20025;-56
2021/09/23 04:27:47;;;;;;;9.50;6.90;;;;;;;;;;4974499;28;20094;-58
2021/09/23 04:30:13;;;;;;;12.83;7.53;;;;;;;;;;4973181;28;20287;-57
2021/09/23 04:32:38;;;;;;;12.27;7.75;;;;;;;;;;4974491;28;20270;-56
2021/09/23 04:35:07;;;;;;;12.57;7.32;;;;;;;;;;4973957;28;20038;-56
2021/09/23 04:37:35;;;;;;;12.68;8.32;;;;;;;;;;4974349;28;20073;-57
2021/09/23 04:40:06;;;;;;;13.35;7.45;;;;;;;;;;4974373;28;20023;-59
2021/09/23 04:42:32;;;;;;;11.65;7.50;;;;;;;;;;4974007;28;20494;-57
2021/09/23 04:44:57;;;;;;;13.27;8.13;;;;;;;;;;4973507;28;20050;-59
2021/09/23 04:47:22;;;;;;;16.00;8.35;;;;;;;;;;4979949;28;20043;-61
2021/09/23 04:49:47;;;;;;;10.43;7.07;;;;;;;;;;4994872;28;20018;-61
2021/09/23 04:52:16;;;;;;;12.33;7.43;;;;;;;;;;4975095;28;20274;-61
2021/09/23 04:54:41;;;;;;;13.82;7.95;;;;;;;;;;4974360;28;20024;-61
2021/09/23 04:57:12;;;;;;;13.95;7.97;;;;;;;;;;4976058;28;20421;-61
2021/09/23 04:59:37;;;;;;;12.68;8.18;;;;;;;;;;4975924;28;20026;-61
2021/09/23 05:02:02;;;;;;;12.90;7.97;;;;;;;;;;4974899;28;20034;-61
2021/09/23 05:04:27;;;;;;;13.48;8.85;;;;;;;;;;4975418;28;20266;-59
2021/09/23 05:06:54;;;;;;;14.13;7.80;;;;;;;;;;4975911;28;20536;-60
2021/09/23 05:09:19;;;;;;;12.50;7.70;;;;;;;;;;4959179;28;20258;-61
2021/09/23 05:11:45;;;;;;;12.10;8.35;;;;;;;;;;4974535;28;20605;-61
2021/09/23 05:14:15;;;;;;;12.50;7.90;;;;;;;;;;4975655;28;20042;-61
2021/09/23 05:16:43;;;;;;;12.98;7.78;;;;;;;;;;4975213;28;20258;-61
2021/09/23 05:19:31;;;;;;;14.25;7.88;;;;;;;;;;4976923;28;20019;-61
2021/09/23 05:21:57;;;;;;;11.88;7.70;;;;;;;;;;4972315;28;21976;-61
2021/09/23 05:24:25;;;;;;;11.70;7.27;;;;;;;;;;4977725;28;20099;-61
2021/09/23 05:26:50;;;;;;;13.18;8.75;;;;;;;;;;4970569;28;20677;-61
2021/09/23 05:29:15;;;;;;;19.73;9.27;;;;;;;;;;4982448;28;20018;-61
2021/09/23 05:31:41;;;;;;;12.10;7.93;;;;;;;;;;4982422;28;20294;-61
2021/09/23 05:34:06;;;;;;;11.93;7.97;;;;;;;;;;4973999;28;20271;-61
2021/09/23 05:36:31;;;;;;;13.53;8.90;;;;;;;;;;4974200;28;20277;-60
2021/09/23 05:38:59;;;;;;;11.50;7.70;;;;;;;;;;4974103;28;20262;-61
2021/09/23 05:41:28;;;;;;;13.25;8.40;;;;;;;;;;4975696;28;20029;-61
2021/09/23 05:43:53;;;;;;;12.70;7.78;;;;;;;;;;4967019;28;20026;-61
2021/09/23 05:46:20;;;;;;;11.63;8.05;;;;;;;;;;4978910;28;20035;-61
2021/09/23 05:48:46;;;;;;;13.35;8.38;;;;;;;;;;4973336;28;20015;-60
2021/09/23 05:51:11;;;;;;;16.60;9.40;;;;;;;;;;4974317;28;20021;-60
2021/09/23 05:53:36;;;;;;;14.53;9.03;;;;;;;;;;4973463;28;20270;-59
2021/09/23 05:56:02;;;;;;;15.50;8.85;;;;;;;;;;4973058;28;20266;-60
2021/09/23 05:58:27;;;;;;;14.90;9.00;;;;;;;;;;4973454;28;20026;-60
2021/09/23 06:00:52;;;;;;;12.68;8.52;;;;;;;;;;4975468;28;20062;-61
2021/09/23 06:03:17;;;;;;;15.57;9.75;;;;;;;;;;4981441;28;20114;-61
2021/09/23 06:05:47;;;;;;;16.90;9.93;;;;;;;;;;4995717;28;20018;-61
2021/09/23 06:08:12;;;;;;;18.23;9.60;;;;;;;;;;4994540;28;20092;-61
2021/09/23 06:10:37;;;;;;;16.23;9.90;;;;;;;;;;4994260;28;20018;-61
2021/09/23 06:13:03;;;;;;;17.73;11.05;;;;;;;;;;4995372;28;20327;-61
2021/09/23 06:15:28;;;;;;;17.25;10.50;;;;;;;;;;4994883;28;20042;-61
2021/09/23 06:17:53;;;;;;;16.43;9.80;;;;;;;;;;4993412;28;20027;-61
2021/09/23 06:20:20;;;;;;;19.00;11.15;;;;;;;;;;4994874;28;20258;-61
2021/09/23 06:22:45;;;;;;;18.05;11.25;;;;;;;;;;4974711;28;20022;-61
2021/09/23 06:25:10;;;;;;;18.17;11.30;;;;;;;;;;4973980;28;20466;-61
2021/09/23 06:27:36;;;;;;;19.23;11.70;;;;;;;;;;4973509;28;20019;-61
2021/09/23 06:30:01;;;;;;;20.67;12.27;;;;;;;;;;4974938;28;20470;-61
2021/09/23 06:32:26;;;;;;;27.05;11.70;;;;;;;;;;4974834;28;20037;-60
2021/09/23 06:34:52;;;;;;;17.20;10.77;;;;;;;;;;4964906;28;20475;-60
2021/09/23 06:37:17;;;;;;;16.98;10.57;;;;;;;;;;4972950;28;20043;-59
2021/09/23 06:39:43;;;;;;;17.83;11.17;;;;;;;;;;4975020;28;20023;-60
2021/09/23 06:42:08;;;;;;;18.00;12.10;;;;;;;;;;4976233;28;20305;-60
2021/09/23 06:44:34;;;;;;;19.80;11.45;;;;;;;;;;4968527;28;20011;-61
2021/09/23 06:47:02;;;;;;;23.02;11.65;;;;;;;;;;4971530;28;20026;-61
2021/09/23 06:49:28;;;;;;;16.98;11.27;;;;;;;;;;4972028;28;20475;-63
2021/09/23 06:51:53;;;;;;;20.67;11.93;;;;;;;;;;4984599;28;20138;-62
2021/09/23 06:54:18;;;;;;;17.33;11.67;;;;;;;;;;4969154;28;20742;-63
2021/09/23 06:56:43;;;;;;;19.83;12.30;;;;;;;;;;4974308;28;20761;-61
2021/09/23 06:59:09;;;;;;;16.25;11.20;;;;;;;;;;4973146;28;20023;-61
2021/09/23 07:01:36;;;;;;;16.17;11.50;;;;;;;;;;4976252;28;20058;-61
2021/09/23 07:04:01;;;;;;;26.63;13.30;;;;;;;;;;4980132;28;20293;-61
2021/09/23 07:06:26;;;;;;;21.35;12.68;;;;;;;;;;4978371;28;20053;-61
2021/09/23 07:08:54;;;;;;;21.45;13.65;;;;;;;;;;4980774;28;20098;-61
2021/09/23 07:11:19;;;;;;;21.13;12.98;;;;;;;;;;4979916;28;20033;-61
2021/09/23 07:13:44;;;;;;;18.07;12.27;;;;;;;;;;4980557;28;20454;-61
2021/09/23 07:16:10;;;;;;;19.27;11.63;;;;;;;;;;4980129;28;20634;-60
2021/09/23 07:18:36;;;;;;;20.83;13.20;;;;;;;;;;4979694;28;20803;-59
2021/09/23 07:21:05;;;;;;;20.35;12.82;;;;;;;;;;4977538;28;20031;-61
2021/09/23 07:23:30;;;;;;;23.75;14.00;;;;;;;;;;4979429;28;20022;-60
2021/09/23 07:25:55;;;;;;;21.35;13.02;;;;;;;;;;4980050;28;20434;-60
2021/09/23 07:28:21;;;;;;;19.43;12.33;;;;;;;;;;4980341;28;20015;-61
2021/09/23 07:30:46;;;;;;;22.70;13.27;;;;;;;;;;4980923;28;20269;-61
2021/09/23 07:33:11;;;;;;;21.50;12.48;;;;;;;;;;4979179;28;20026;-60
2021/09/23 07:35:37;;;;;;;20.23;12.65;;;;;;;;;;4980524;28;20390;-61
2021/09/23 07:38:03;;;;;;;20.58;12.50;;;;;;;;;;4980453;28;20030;-60
2021/09/23 07:40:28;;;;;;;20.08;12.75;;;;;;;;;;4980107;28;20097;-60
2021/09/23 07:42:53;;;;;;;29.05;18.42;;;;;;;;;;4980983;28;20035;-60
2021/09/23 07:45:19;;;;;;;29.13;18.95;;;;;;;;;;4980599;28;20057;-61
2021/09/23 07:47:44;;;;;;;22.90;16.08;;;;;;;;;;4979389;28;20094;-61
2021/09/23 07:50:09;;;;;;;23.95;15.23;;;;;;;;;;4981137;28;20382;-60
2021/09/23 07:52:35;;;;;;;23.48;13.88;;;;;;;;;;4980278;28;20027;-61
2021/09/23 07:55:02;;;;;;;26.52;14.55;;;;;;;;;;4981588;28;20024;-61
2021/09/23 07:57:28;;;;;;;18.92;12.10;;;;;;;;;;4981233;28;20022;-60
2021/09/23 07:59:53;;;;;;;16.13;11.00;;;;;;;;;;4981409;28;20089;-57
2021/09/23 08:02:18;;;;;;;17.43;11.03;;;;;;;;;;4981403;28;20286;-59
2021/09/23 08:04:43;;;;;;;19.02;11.20;;;;;;;;;;4981628;28;20361;-59
2021/09/23 08:07:12;;;;;;;19.17;10.75;;;;;;;;;;4979716;28;20462;-59
2021/09/23 08:09:38;;;;;;;18.20;11.23;;;;;;;;;;4981230;28;20039;-61
2021/09/23 08:12:03;;;;;;;18.27;11.82;;;;;;;;;;4981247;28;20041;-61
2021/09/23 08:14:28;;;;;;;19.48;12.20;;;;;;;;;;4979838;28;20058;-61
2021/09/23 08:16:53;;;;;;;20.80;12.63;;;;;;;;;;4979719;28;20038;-61
2021/09/23 08:19:19;;;;;;;18.17;12.27;;;;;;;;;;4979773;28;20023;-61
2021/09/23 08:21:44;;;;;;;20.70;13.48;;;;;;;;;;4981321;28;20027;-61
2021/09/23 08:24:09;;;;;;;18.77;11.82;;;;;;;;;;4981306;28;20073;-61
2021/09/23 08:26:35;;;;;;;19.35;12.73;;;;;;;;;;4980892;28;20083;-61
2021/09/23 08:29:00;;;;;;;19.27;12.48;;;;;;;;;;4980747;28;20033;-61
2021/09/23 08:31:26;;;;;;;21.20;13.32;;;;;;;;;;4980676;28;20015;-61
2021/09/23 08:33:51;;;;;;;21.33;13.27;;;;;;;;;;4980739;28;20027;-61
2021/09/23 08:36:17;;;;;;;20.88;13.13;;;;;;;;;;4980643;28;20026;-60
2021/09/23 08:38:42;;;;;;;20.38;13.00;;;;;;;;;;4980682;28;20030;-57
2021/09/23 08:41:07;;;;;;;19.85;12.82;;;;;;;;;;4977634;28;20109;-57
2021/09/23 08:43:34;;;;;;;22.75;13.48;;;;;;;;;;4974687;28;20034;-56
2021/09/23 08:45:59;;;;;;;23.15;13.77;;;;;;;;;;4978398;28;20034;-60
2021/09/23 08:48:25;;;;;;;22.38;15.25;;;;;;;;;;4987025;28;20065;-59
2021/09/23 08:50:55;;;;;;;22.08;13.68;;;;;;;;;;4977636;28;20022;-61
2021/09/23 08:53:21;;;;;;;21.85;14.00;;;;;;;;;;4979274;28;20440;-61
2021/09/23 08:55:46;;;;;;;22.03;14.93;;;;;;;;;;4977228;28;20050;-60
2021/09/23 08:58:11;;;;;;;23.35;14.30;;;;;;;;;;4978715;28;20629;-61
2021/09/23 09:00:37;;;;;;;21.83;13.57;;;;;;;;;;4978099;28;20038;-60
2021/09/23 09:03:04;;;;;;;23.88;14.48;;;;;;;;;;4977185;28;20065;-60
2021/09/23 09:05:30;;;;;;;20.77;13.48;;;;;;;;;;4977350;28;20030;-61
2021/09/23 09:08:00;;;;;;;22.30;14.60;;;;;;;;;;4978921;28;20474;-60
2021/09/23 09:10:25;;;;;;;21.10;14.23;;;;;;;;;;4978939;28;20015;-60
2021/09/23 09:12:51;;;;;;;21.45;14.30;;;;;;;;;;4977694;28;20021;-60
2021/09/23 09:15:17;;;;;;;21.83;14.02;;;;;;;;;;4979000;28;20044;-60
2021/09/23 09:17:43;;;;;;;23.58;15.23;;;;;;;;;;4979455;28;20082;-60
2021/09/23 09:20:08;;;;;;;20.13;13.23;;;;;;;;;;4979305;28;20065;-60
2021/09/23 09:22:35;;;;;;;22.73;14.70;;;;;;;;;;4977428;28;20285;-56
2021/09/23 09:25:03;;;;;;;23.85;14.75;;;;;;;;;;4978607;28;20030;-58
2021/09/23 09:27:30;;;;;;;23.17;14.55;;;;;;;;;;4979222;28;20022;-57
2021/09/23 09:29:56;;;;;;;21.48;14.02;;;;;;;;;;4979528;28;20026;-58
2021/09/23 09:32:36;;;;;;;21.15;13.63;;;;;;;;;;4978107;28;20158;-58
2021/09/23 09:35:02;;;;;;;21.65;14.05;;;;;;;;;;4979673;28;20050;-59
2021/09/23 09:37:29;;;;;;;22.20;14.35;;;;;;;;;;4979377;28;20037;-56
2021/09/23 09:39:55;;;;;;;21.42;13.70;;;;;;;;;;4979869;28;20033;-56
2021/09/23 09:42:21;;;;;;;21.58;13.95;;;;;;;;;;4979238;28;20065;-61
2021/09/23 09:44:56;;;;;;;22.02;14.65;;;;;;;;;;4979219;28;20493;-61
2021/09/23 09:47:27;;;;;;;20.73;13.32;;;;;;;;;;4978011;28;20026;-60
2021/09/23 09:49:52;;;;;;;19.70;13.15;;;;;;;;;;4977794;28;20026;-61
2021/09/23 09:52:29;;;;;;;19.73;13.23;;;;;;;;;;4979056;28;20114;-60
2021/09/23 09:55:02;;;;;;;21.10;13.45;;;;;;;;;;4979054;28;20265;-60
2021/09/23 09:57:28;;;;;;;20.88;14.52;;;;;;;;;;4979331;28;20019;-60
2021/09/23 09:59:53;;;;;;;20.60;13.85;;;;;;;;;;4977489;28;20027;-61
2021/09/23 10:02:18;;;;;;;19.73;13.40;;;;;;;;;;4978742;28;20023;-61
2021/09/23 10:04:45;;;;;;;20.65;14.50;;;;;;;;;;4978739;28;20018;-61
2021/09/23 10:07:11;;;;;;;18.48;13.25;;;;;;;;;;4977372;28;20021;-61
2021/09/23 10:09:38;;;;;;;21.17;13.98;;;;;;;;;;4979117;28;20023;-61
2021/09/23 10:12:04;;;;;;;21.05;13.75;;;;;;;;;;4977443;28;20786;-60
2021/09/23 10:14:29;;;;;;;20.13;13.48;;;;;;;;;;4978256;28;20063;-59
2021/09/23 10:16:55;;;;;;;19.52;13.02;;;;;;;;;;4978544;28;20106;-59
2021/09/23 10:19:21;;;;;;;20.40;14.10;;;;;;;;;;4977008;28;20478;-58
2021/09/23 10:21:46;;;;;;;21.95;14.80;;;;;;;;;;4978078;28;20042;-59
2021/09/23 10:24:12;;;;;;;20.73;14.30;;;;;;;;;;4985538;28;20019;-59
2021/09/23 10:26:39;;;;;;;19.15;12.55;;;;;;;;;;4997493;28;20032;-58
2021/09/23 10:29:05;;;;;;;16.48;12.85;;;;;;;;;;4997776;28;20108;-59
2021/09/23 10:31:31;;;;;;;19.15;13.65;;;;;;;;;;4996029;28;21318;-57
2021/09/23 10:33:58;;;;;;;22.23;14.45;;;;;;;;;;4997763;28;20029;-61
2021/09/23 10:36:23;;;;;;;17.27;12.25;;;;;;;;;;5000096;28;20029;-61
2021/09/23 10:38:49;;;;;;;20.02;12.95;;;;;;;;;;5001851;28;20019;-61
2021/09/23 10:41:15;;;;;;;19.15;13.27;;;;;;;;;;5001882;28;20030;-61
2021/09/23 10:43:42;;;;;;;20.40;13.20;;;;;;;;;;5001381;28;20489;-62
2021/09/23 10:46:09;;;;;;;17.38;12.45;;;;;;;;;;4998451;28;20038;-57
2021/09/23 10:48:34;;;;;;;16.85;12.18;;;;;;;;;;4985696;28;20027;-58
2021/09/23 10:51:00;;;;;;;20.50;13.65;;;;;;;;;;4977235;28;20068;-58
2021/09/23 10:53:26;;;;;;;18.30;12.85;;;;;;;;;;4977112;28;20436;-58
2021/09/23 10:55:52;;;;;;;17.58;12.93;;;;;;;;;;4975859;28;20026;-60
2021/09/23 10:58:20;;;;;;;20.98;13.93;;;;;;;;;;4977152;28;20504;-61
2021/09/23 11:00:45;;;;;;;17.98;12.82;;;;;;;;;;4975867;28;20023;-56
2021/09/23 11:03:10;;;;;;;17.40;11.80;;;;;;;;;;4975804;28;20125;-57
2021/09/23 11:05:36;;;;;;;19.10;13.40;;;;;;;;;;4975858;28;20509;-60
2021/09/23 11:08:10;;;;;;;18.45;12.82;;;;;;;;;;4975873;28;20480;-59
2021/09/23 11:10:39;;;;;;;18.13;13.57;;;;;;;;;;4976963;28;20015;-60
2021/09/23 11:13:05;;;;;;;17.15;12.95;;;;;;;;;;4976769;28;20050;-60
2021/09/23 11:15:30;;;;;;;19.35;13.48;;;;;;;;;;4976684;28;20059;-59
2021/09/23 11:17:57;;;;;;;19.48;12.68;;;;;;;;;;4976773;28;20110;-60
2021/09/23 11:20:24;;;;;;;17.42;12.43;;;;;;;;;;4976633;28;20019;-58
2021/09/23 11:22:53;;;;;;;17.50;12.40;;;;;;;;;;4976556;28;20093;-59
2021/09/23 11:25:21;;;;;;;18.00;12.13;;;;;;;;;;4975513;28;20019;-59
2021/09/23 11:27:47;;;;;;;17.63;12.73;;;;;;;;;;4976591;28;20125;-59
2021/09/23 11:30:14;;;;;;;18.10;13.45;;;;;;;;;;4976512;28;20094;-59
2021/09/23 11:32:49;;;;;;;19.05;12.82;;;;;;;;;;4976553;28;20030;-60
2021/09/23 11:35:15;;;;;;;15.70;12.25;;;;;;;;;;4975115;28;20035;-58
2021/09/23 11:37:40;;;;;;;16.58;12.93;;;;;;;;;;4975439;28;20086;-59
2021/09/23 11:40:06;;;;;;;14.45;11.98;;;;;;;;;;4976234;28;20027;-61
2021/09/23 11:42:33;;;;;;;17.10;12.70;;;;;;;;;;4975076;28;20034;-57
2021/09/23 11:45:18;;;;;;;19.85;12.65;;;;;;;;;;4976047;28;20114;-60
2021/09/23 11:47:45;;;;;;;15.35;12.07;;;;;;;;;;4975062;28;20037;-59
2021/09/23 11:50:10;;;;;;;19.63;13.32;;;;;;;;;;4976067;28;20032;-60
2021/09/23 11:52:36;;;;;;;16.00;11.90;;;;;;;;;;4974578;28;20022;-59
2021/09/23 11:55:02;;;;;;;15.82;11.93;;;;;;;;;;4974746;28;20080;-58
2021/09/23 11:57:29;;;;;;;16.08;12.15;;;;;;;;;;4976003;28;20058;-60
2021/09/23 11:59:58;;;;;;;18.27;12.05;;;;;;;;;;4975951;28;20026;-57
2021/09/23 12:02:23;;;;;;;17.10;12.50;;;;;;;;;;4975633;28;20027;-59
2021/09/23 12:04:56;;;;;;;16.70;11.65;;;;;;;;;;4975882;28;20490;-60
2021/09/23 12:07:21;;;;;;;12.60;10.52;;;;;;;;;;4975703;28;20081;-59
2021/09/23 12:09:59;;;;;;;13.43;10.50;;;;;;;;;;4975978;28;20110;-60
2021/09/23 12:12:25;;;;;;;13.80;10.45;;;;;;;;;;4975805;28;20022;-59
2021/09/23 12:14:54;;;;;;;15.20;11.32;;;;;;;;;;4975651;28;20037;-59
2021/09/23 12:17:19;;;;;;;12.57;10.55;;;;;;;;;;4975724;28;20037;-61
2021/09/23 12:19:52;;;;;;;13.95;10.40;;;;;;;;;;4974345;28;20385;-58
2021/09/23 12:22:25;;;;;;;14.20;10.43;;;;;;;;;;4974266;28;20081;-58
2021/09/23 12:24:51;;;;;;;11.80;9.75;;;;;;;;;;4975488;28;20509;-58
2021/09/23 12:27:16;;;;;;;18.83;10.73;;;;;;;;;;4975406;28;20027;-60
2021/09/23 12:29:41;;;;;;;11.75;9.82;;;;;;;;;;4975415;28;20430;-61
2021/09/23 12:32:08;;;;;;;13.75;10.60;;;;;;;;;;4975402;28;20109;-60
2021/09/23 12:34:41;;;;;;;13.35;10.75;;;;;;;;;;4975278;28;20027;-60
2021/09/23 12:37:06;;;;;;;13.82;10.05;;;;;;;;;;4975312;28;20033;-61
2021/09/23 12:39:39;;;;;;;15.32;10.57;;;;;;;;;;4975117;28;20027;-60
2021/09/23 12:42:09;;;;;;;11.95;9.68;;;;;;;;;;4975113;28;20023;-60
2021/09/23 12:44:36;;;;;;;18.38;10.73;;;;;;;;;;4973483;28;20073;-60
2021/09/23 12:47:06;;;;;;;14.05;10.70;;;;;;;;;;4973904;28;20097;-61
2021/09/23 12:49:31;;;;;;;16.25;11.85;;;;;;;;;;4974995;28;20018;-60
2021/09/23 12:52:09;;;;;;;13.10;11.05;;;;;;;;;;4974992;28;20022;-61
2021/09/23 12:54:34;;;;;;;14.32;11.38;;;;;;;;;;4973595;28;20054;-61
2021/09/23 12:57:03;;;;;;;12.48;10.18;;;;;;;;;;4972209;28;20023;-61
2021/09/23 12:59:32;;;;;;;10.77;9.68;;;;;;;;;;4969947;28;20031;-61
2021/09/23 13:02:30;;;;;;;12.38;10.40;;;;;;;;;;4971590;28;20443;-61
2021/09/23 13:05:00;;;;;;;13.38;11.00;;;;;;;;;;4956502;28;20058;-60
2021/09/23 13:07:26;;;;;;;12.43;10.60;;;;;;;;;;4967360;28;20355;-61
2021/09/23 13:10:11;;;;;;;11.95;9.48;;;;;;;;;;4966302;28;20418;-60
2021/09/23 13:12:44;;;;;;;14.90;11.15;;;;;;;;;;4970637;28;20478;-60
2021/09/23 13:15:14;;;;;;;13.30;9.52;;;;;;;;;;4968949;28;20034;-61
2021/09/23 13:17:39;;;;;;;12.43;9.30;;;;;;;;;;4969737;28;20491;-61
2021/09/23 13:20:05;;;;;;;11.93;9.70;;;;;;;;;;4969520;28;20034;-62
2021/09/23 13:22:30;;;;;;;13.32;9.27;;;;;;;;;;4969934;28;20026;-60
2021/09/23 13:24:55;;;;;;;12.67;10.63;;;;;;;;;;4971400;28;20018;-60
2021/09/23 13:27:21;;;;;;;12.10;10.53;;;;;;;;;;4970792;28;20688;-59
2021/09/23 13:29:46;;;;;;;15.20;9.77;;;;;;;;;;4971057;28;20273;-60
2021/09/23 13:32:14;;;;;;;12.60;9.53;;;;;;;;;;4969811;28;20023;-60
2021/09/23 13:34:40;;;;;;;10.07;8.50;;;;;;;;;;4970942;28;20270;-55
2021/09/23 13:37:05;;;;;;;11.87;9.23;;;;;;;;;;4969572;28;20088;-60
2021/09/23 13:39:30;;;;;;;15.70;10.55;;;;;;;;;;4970463;28;20889;-58
2021/09/23 13:41:56;;;;;;;10.57;8.73;;;;;;;;;;4971363;28;20501;-60
2021/09/23 13:44:21;;;;;;;13.07;9.03;;;;;;;;;;4968731;28;21306;-60
2021/09/23 13:46:49;;;;;;;14.38;9.38;;;;;;;;;;4971267;28;20321;-59
2021/09/23 13:49:14;;;;;;;13.25;9.02;;;;;;;;;;4970064;28;20055;-60
2021/09/23 13:51:39;;;;;;;11.07;9.43;;;;;;;;;;4967883;28;20482;-61
2021/09/23 13:54:05;;;;;;;8.60;7.60;;;;;;;;;;4962723;28;20019;-60
2021/09/23 13:56:30;;;;;;;9.50;8.45;;;;;;;;;;4969831;28;20273;-60
2021/09/23 13:58:55;;;;;;;13.18;8.90;;;;;;;;;;4970513;28;20030;-61
2021/09/23 14:01:21;;;;;;;11.85;8.23;;;;;;;;;;4969003;28;20031;-59
2021/09/23 14:03:46;;;;;;;10.50;8.65;;;;;;;;;;4970803;28;20030;-60
2021/09/23 14:06:12;;;;;;;10.52;8.73;;;;;;;;;;4983900;28;20030;-60
2021/09/23 14:08:40;;;;;;;12.35;8.05;;;;;;;;;;4972410;28;20050;-59
2021/09/23 14:11:08;;;;;;;8.60;6.93;;;;;;;;;;4972569;28;20027;-59
2021/09/23 14:13:33;;;;;;;9.05;6.97;;;;;;;;;;4972669;28;20027;-59
2021/09/23 14:15:59;;;;;;;10.00;7.60;;;;;;;;;;4972670;28;20033;-59
2021/09/23 14:18:25;;;;;;;8.25;7.15;;;;;;;;;;4971147;28;20310;-56
2021/09/23 14:20:50;;;;;;;9.45;7.53;;;;;;;;;;4972636;28;20113;-59
2021/09/23 14:23:15;;;;;;;10.07;8.00;;;;;;;;;;4972629;28;20029;-58